KMIW

Marshalltown Municipal Airport

Marshalltown, Iowa, USA
METAR KMIW 200653Z AUTO 00000KT 1/2SM -FZRA FZFG VV002 M01/M01 A2978 RMK AO2 FZRAB52 SLP092 P0000 I1000 T10061006
Observed Flight Rules
Feb-20 @ 06:53 UTC (33 minutes ago) Instrument Flight Rules
Wind Visibility Clouds Conditions
Calm 1/2 miles
  • Vertical visibility at 200' AGL
  • Light Freezing
  • Light Rain
  • Freezing
  • Fog
Temperatures Readings Precipitation
Current -1°C / 30°F
Dewpoint -1°C / 30°F
Humidity 100%
Altimeter 29.78" Hg
Pressure 1009.2 hPa
Elevation 296
Current Rain 0.005
METAR KMIW 200653Z AUTO 00000KT 1/2SM -FZRA FZFG VV002 M01/M01 A2978 RMK AO2 FZRAB52 SLP092 P0000 I1000 T10061006
Observed Flight Rules
Feb-20 @ 06:53 UTC
(33 minutes ago)
LIFR
Wind Visibility
Calm 1/2 miles
Clouds
  • Vertical visibility at 200' AGL
Conditions
  • Light Freezing
  • Light Rain
  • Freezing
  • Fog
Temperature Dewpoint
-1°C / 30°F -1°C / 30°F
Humidity Altimeter Pressure
100% 29.78" Hg 1009.2 hPa
Current Rain
0.005